sensor_id;sensor_type;location;lat;lon;timestamp;temperature;humidity
76384;SHT30;65204;48.606;7.598;2023-08-21T00:00:18;30.66;54.33
76384;SHT30;65204;48.606;7.598;2023-08-21T00:00:48;30.63;54.32
76384;SHT30;65204;48.606;7.598;2023-08-21T00:01:19;30.63;54.33
76384;SHT30;65204;48.606;7.598;2023-08-21T00:01:49;30.63;54.41
76384;SHT30;65204;48.606;7.598;2023-08-21T00:02:20;30.63;54.39
76384;SHT30;65204;48.606;7.598;2023-08-21T00:02:50;30.63;54.41
76384;SHT30;65204;48.606;7.598;2023-08-21T00:03:22;30.66;54.39
76384;SHT30;65204;48.606;7.598;2023-08-21T00:03:52;30.63;54.37
76384;SHT30;65204;48.606;7.598;2023-08-21T00:04:23;30.63;54.41
76384;SHT30;65204;48.606;7.598;2023-08-21T00:04:53;30.62;54.43
76384;SHT30;65204;48.606;7.598;2023-08-21T00:05:24;30.63;54.42
76384;SHT30;65204;48.606;7.598;2023-08-21T00:05:54;30.60;54.43
76384;SHT30;65204;48.606;7.598;2023-08-21T00:06:25;30.59;54.50
76384;SHT30;65204;48.606;7.598;2023-08-21T00:06:55;30.63;54.43
76384;SHT30;65204;48.606;7.598;2023-08-21T00:07:26;30.62;54.48
76384;SHT30;65204;48.606;7.598;2023-08-21T00:07:56;30.57;54.48
76384;SHT30;65204;48.606;7.598;2023-08-21T00:08:26;30.62;54.50
76384;SHT30;65204;48.606;7.598;2023-08-21T00:08:57;30.57;54.47
76384;SHT30;65204;48.606;7.598;2023-08-21T00:09:27;30.56;54.49
76384;SHT30;65204;48.606;7.598;2023-08-21T00:09:57;30.53;54.53
76384;SHT30;65204;48.606;7.598;2023-08-21T00:10:29;30.51;54.54
76384;SHT30;65204;48.606;7.598;2023-08-21T00:11:00;30.47;54.59
76384;SHT30;65204;48.606;7.598;2023-08-21T00:11:30;30.46;54.65
76384;SHT30;65204;48.606;7.598;2023-08-21T00:12:00;30.46;54.69
76384;SHT30;65204;48.606;7.598;2023-08-21T00:12:31;30.42;54.72
76384;SHT30;65204;48.606;7.598;2023-08-21T00:13:01;30.43;54.75
76384;SHT30;65204;48.606;7.598;2023-08-21T00:13:32;30.45;54.74
76384;SHT30;65204;48.606;7.598;2023-08-21T00:14:02;30.49;54.74
76384;SHT30;65204;48.606;7.598;2023-08-21T00:14:33;30.51;54.75
76384;SHT30;65204;48.606;7.598;2023-08-21T00:15:04;30.51;54.71
76384;SHT30;65204;48.606;7.598;2023-08-21T00:15:34;30.52;54.70
76384;SHT30;65204;48.606;7.598;2023-08-21T00:16:05;30.52;54.72
76384;SHT30;65204;48.606;7.598;2023-08-21T00:16:35;30.51;54.73
76384;SHT30;65204;48.606;7.598;2023-08-21T00:17:06;30.47;54.77
76384;SHT30;65204;48.606;7.598;2023-08-21T00:17:36;30.46;54.81
76384;SHT30;65204;48.606;7.598;2023-08-21T00:18:07;30.46;54.90
76384;SHT30;65204;48.606;7.598;2023-08-21T00:18:37;30.46;54.94
76384;SHT30;65204;48.606;7.598;2023-08-21T00:19:07;30.46;54.96
76384;SHT30;65204;48.606;7.598;2023-08-21T00:19:38;30.47;54.98
76384;SHT30;65204;48.606;7.598;2023-08-21T00:20:09;30.51;54.94
76384;SHT30;65204;48.606;7.598;2023-08-21T00:20:40;30.53;54.94
76384;SHT30;65204;48.606;7.598;2023-08-21T00:21:12;30.55;54.86
76384;SHT30;65204;48.606;7.598;2023-08-21T00:21:43;30.56;54.83
76384;SHT30;65204;48.606;7.598;2023-08-21T00:22:13;30.57;54.84
76384;SHT30;65204;48.606;7.598;2023-08-21T00:22:43;30.62;54.79
76384;SHT30;65204;48.606;7.598;2023-08-21T00:23:14;30.59;54.70
76384;SHT30;65204;48.606;7.598;2023-08-21T00:23:44;30.60;54.72
76384;SHT30;65204;48.606;7.598;2023-08-21T00:24:14;30.60;54.73
76384;SHT30;65204;48.606;7.598;2023-08-21T00:24:44;30.62;54.71
76384;SHT30;65204;48.606;7.598;2023-08-21T00:25:15;30.65;54.62
76384;SHT30;65204;48.606;7.598;2023-08-21T00:25:47;30.65;54.61
76384;SHT30;65204;48.606;7.598;2023-08-21T00:26:18;30.65;54.56
76384;SHT30;65204;48.606;7.598;2023-08-21T00:26:48;30.66;54.58
76384;SHT30;65204;48.606;7.598;2023-08-21T00:27:18;30.67;54.55
76384;SHT30;65204;48.606;7.598;2023-08-21T00:27:49;30.66;54.53
76384;SHT30;65204;48.606;7.598;2023-08-21T00:28:19;30.69;54.50
76384;SHT30;65204;48.606;7.598;2023-08-21T00:28:50;30.70;54.46
76384;SHT30;65204;48.606;7.598;2023-08-21T00:29:20;30.72;54.48
76384;SHT30;65204;48.606;7.598;2023-08-21T00:29:51;30.70;54.46
76384;SHT30;65204;48.606;7.598;2023-08-21T00:30:21;30.70;54.42
76384;SHT30;65204;48.606;7.598;2023-08-21T00:31:00;30.73;54.35
76384;SHT30;65204;48.606;7.598;2023-08-21T00:31:30;30.72;54.39
76384;SHT30;65204;48.606;7.598;2023-08-21T00:32:01;30.75;54.33
76384;SHT30;65204;48.606;7.598;2023-08-21T00:32:32;30.75;54.30
76384;SHT30;65204;48.606;7.598;2023-08-21T00:33:02;30.73;54.25
76384;SHT30;65204;48.606;7.598;2023-08-21T00:33:33;30.73;54.27
76384;SHT30;65204;48.606;7.598;2023-08-21T00:34:04;30.72;54.30
76384;SHT30;65204;48.606;7.598;2023-08-21T00:34:34;30.70;54.36
76384;SHT30;65204;48.606;7.598;2023-08-21T00:35:05;30.67;54.39
76384;SHT30;65204;48.606;7.598;2023-08-21T00:35:35;30.65;54.42
76384;SHT30;65204;48.606;7.598;2023-08-21T00:36:06;30.63;54.46
76384;SHT30;65204;48.606;7.598;2023-08-21T00:36:36;30.62;54.52
76384;SHT30;65204;48.606;7.598;2023-08-21T00:37:06;30.59;54.50
76384;SHT30;65204;48.606;7.598;2023-08-21T00:37:37;30.53;54.57
76384;SHT30;65204;48.606;7.598;2023-08-21T00:38:11;30.52;54.70
76384;SHT30;65204;48.606;7.598;2023-08-21T00:38:42;30.46;54.81
76384;SHT30;65204;48.606;7.598;2023-08-21T00:39:13;30.43;54.85
76384;SHT30;65204;48.606;7.598;2023-08-21T00:39:43;30.42;54.88
76384;SHT30;65204;48.606;7.598;2023-08-21T00:40:14;30.40;54.97
76384;SHT30;65204;48.606;7.598;2023-08-21T00:40:44;30.37;55.06
76384;SHT30;65204;48.606;7.598;2023-08-21T00:41:15;30.36;55.10
76384;SHT30;65204;48.606;7.598;2023-08-21T00:41:45;30.33;55.12
76384;SHT30;65204;48.606;7.598;2023-08-21T00:42:15;30.35;55.18
76384;SHT30;65204;48.606;7.598;2023-08-21T00:42:46;30.37;55.18
76384;SHT30;65204;48.606;7.598;2023-08-21T00:43:16;30.35;55.21
76384;SHT30;65204;48.606;7.598;2023-08-21T00:43:47;30.40;55.20
76384;SHT30;65204;48.606;7.598;2023-08-21T00:44:17;30.42;55.10
76384;SHT30;65204;48.606;7.598;2023-08-21T00:44:48;30.42;55.10
76384;SHT30;65204;48.606;7.598;2023-08-21T00:45:18;30.43;55.07
76384;SHT30;65204;48.606;7.598;2023-08-21T00:45:49;30.45;55.04
76384;SHT30;65204;48.606;7.598;2023-08-21T00:46:20;30.46;55.05
76384;SHT30;65204;48.606;7.598;2023-08-21T00:46:51;30.49;55.00
76384;SHT30;65204;48.606;7.598;2023-08-21T00:47:21;30.52;55.02
76384;SHT30;65204;48.606;7.598;2023-08-21T00:47:52;30.49;54.95
76384;SHT30;65204;48.606;7.598;2023-08-21T00:48:22;30.52;54.92
76384;SHT30;65204;48.606;7.598;2023-08-21T00:48:53;30.53;54.89
76384;SHT30;65204;48.606;7.598;2023-08-21T00:49:23;30.55;54.88
76384;SHT30;65204;48.606;7.598;2023-08-21T00:49:54;30.56;54.91
76384;SHT30;65204;48.606;7.598;2023-08-21T00:50:25;30.53;54.91
76384;SHT30;65204;48.606;7.598;2023-08-21T00:50:55;30.55;54.85
76384;SHT30;65204;48.606;7.598;2023-08-21T00:51:26;30.56;54.87
76384;SHT30;65204;48.606;7.598;2023-08-21T00:51:56;30.57;54.83
76384;SHT30;65204;48.606;7.598;2023-08-21T00:52:27;30.55;54.86
76384;SHT30;65204;48.606;7.598;2023-08-21T00:52:58;30.56;54.86
76384;SHT30;65204;48.606;7.598;2023-08-21T00:53:28;30.56;54.88
76384;SHT30;65204;48.606;7.598;2023-08-21T00:53:59;30.59;54.90
76384;SHT30;65204;48.606;7.598;2023-08-21T00:54:29;30.57;54.86
76384;SHT30;65204;48.606;7.598;2023-08-21T00:55:00;30.59;54.91
76384;SHT30;65204;48.606;7.598;2023-08-21T00:55:31;30.57;54.83
76384;SHT30;65204;48.606;7.598;2023-08-21T00:56:02;30.59;54.81
76384;SHT30;65204;48.606;7.598;2023-08-21T00:56:33;30.59;54.86
76384;SHT30;65204;48.606;7.598;2023-08-21T00:57:04;30.59;54.85
76384;SHT30;65204;48.606;7.598;2023-08-21T00:57:36;30.59;54.83
76384;SHT30;65204;48.606;7.598;2023-08-21T00:58:09;30.62;54.79
76384;SHT30;65204;48.606;7.598;2023-08-21T00:58:42;30.60;54.80
76384;SHT30;65204;48.606;7.598;2023-08-21T00:59:13;30.63;54.81
76384;SHT30;65204;48.606;7.598;2023-08-21T00:59:43;30.60;54.81
76384;SHT30;65204;48.606;7.598;2023-08-21T01:00:13;30.60;54.76
76384;SHT30;65204;48.606;7.598;2023-08-21T01:00:45;30.60;54.75
76384;SHT30;65204;48.606;7.598;2023-08-21T01:01:17;30.60;54.82
76384;SHT30;65204;48.606;7.598;2023-08-21T01:01:49;30.57;54.79
76384;SHT30;65204;48.606;7.598;2023-08-21T01:02:19;30.60;54.78
76384;SHT30;65204;48.606;7.598;2023-08-21T01:02:50;30.60;54.77
76384;SHT30;65204;48.606;7.598;2023-08-21T01:03:21;30.62;54.79
76384;SHT30;65204;48.606;7.598;2023-08-21T01:03:51;30.60;54.79
76384;SHT30;65204;48.606;7.598;2023-08-21T01:04:21;30.59;54.77
76384;SHT30;65204;48.606;7.598;2023-08-21T01:04:52;30.60;54.78
76384;SHT30;65204;48.606;7.598;2023-08-21T01:05:23;30.62;54.77
76384;SHT30;65204;48.606;7.598;2023-08-21T01:05:54;30.60;54.77
76384;SHT30;65204;48.606;7.598;2023-08-21T01:06:25;30.60;54.80
76384;SHT30;65204;48.606;7.598;2023-08-21T01:06:57;30.60;54.77
76384;SHT30;65204;48.606;7.598;2023-08-21T01:07:27;30.57;54.83
76384;SHT30;65204;48.606;7.598;2023-08-21T01:08:03;30.59;54.81
76384;SHT30;65204;48.606;7.598;2023-08-21T01:10:17;30.53;54.89
76384;SHT30;65204;48.606;7.598;2023-08-21T01:10:56;30.53;54.89
76384;SHT30;65204;48.606;7.598;2023-08-21T01:11:42;30.51;54.89
76384;SHT30;65204;48.606;7.598;2023-08-21T01:13:22;30.46;55.04
76384;SHT30;65204;48.606;7.598;2023-08-21T01:14:06;30.42;55.14
76384;SHT30;65204;48.606;7.598;2023-08-21T01:14:58;30.39;55.15
76384;SHT30;65204;48.606;7.598;2023-08-21T01:15:29;30.37;55.26
76384;SHT30;65204;48.606;7.598;2023-08-21T01:16:00;30.37;55.30
76384;SHT30;65204;48.606;7.598;2023-08-21T01:16:32;30.37;55.29
76384;SHT30;65204;48.606;7.598;2023-08-21T01:17:04;30.39;55.27
76384;SHT30;65204;48.606;7.598;2023-08-21T01:17:37;30.33;55.35
76384;SHT30;65204;48.606;7.598;2023-08-21T01:18:08;30.32;55.44
76384;SHT30;65204;48.606;7.598;2023-08-21T01:18:39;30.32;55.42
76384;SHT30;65204;48.606;7.598;2023-08-21T01:19:21;30.25;55.51
76384;SHT30;65204;48.606;7.598;2023-08-21T01:19:55;30.22;55.62
76384;SHT30;65204;48.606;7.598;2023-08-21T01:20:26;30.22;55.63
76384;SHT30;65204;48.606;7.598;2023-08-21T01:20:57;30.18;55.67
76384;SHT30;65204;48.606;7.598;2023-08-21T01:21:28;30.19;55.75
76384;SHT30;65204;48.606;7.598;2023-08-21T01:21:59;30.16;55.78
76384;SHT30;65204;48.606;7.598;2023-08-21T01:22:38;30.14;55.74
76384;SHT30;65204;48.606;7.598;2023-08-21T01:23:09;30.12;55.78
76384;SHT30;65204;48.606;7.598;2023-08-21T01:23:41;30.12;55.85
76384;SHT30;65204;48.606;7.598;2023-08-21T01:24:14;30.12;55.84
76384;SHT30;65204;48.606;7.598;2023-08-21T01:24:44;30.05;55.90
76384;SHT30;65204;48.606;7.598;2023-08-21T01:25:15;30.09;55.90
76384;SHT30;65204;48.606;7.598;2023-08-21T01:25:46;30.08;55.89
76384;SHT30;65204;48.606;7.598;2023-08-21T01:26:16;30.11;55.83
76384;SHT30;65204;48.606;7.598;2023-08-21T01:26:49;30.09;55.77
76384;SHT30;65204;48.606;7.598;2023-08-21T01:27:20;30.15;55.77
76384;SHT30;65204;48.606;7.598;2023-08-21T01:27:54;30.15;55.69
76384;SHT30;65204;48.606;7.598;2023-08-21T01:28:24;30.15;55.68
76384;SHT30;65204;48.606;7.598;2023-08-21T01:28:54;30.18;55.69
76384;SHT30;65204;48.606;7.598;2023-08-21T01:29:25;30.16;55.64
76384;SHT30;65204;48.606;7.598;2023-08-21T01:29:56;30.19;55.58
76384;SHT30;65204;48.606;7.598;2023-08-21T01:30:28;30.21;55.47
76384;SHT30;65204;48.606;7.598;2023-08-21T01:31:39;30.19;55.43
76384;SHT30;65204;48.606;7.598;2023-08-21T01:33:02;30.21;55.37
76384;SHT30;65204;48.606;7.598;2023-08-21T01:33:42;30.24;55.27
76384;SHT30;65204;48.606;7.598;2023-08-21T01:34:15;30.24;55.25
76384;SHT30;65204;48.606;7.598;2023-08-21T01:34:47;30.28;55.16
76384;SHT30;65204;48.606;7.598;2023-08-21T01:35:20;30.26;55.14
76384;SHT30;65204;48.606;7.598;2023-08-21T01:35:51;30.29;55.11
76384;SHT30;65204;48.606;7.598;2023-08-21T01:36:22;30.29;55.03
76384;SHT30;65204;48.606;7.598;2023-08-21T01:36:53;30.28;55.00
76384;SHT30;65204;48.606;7.598;2023-08-21T01:37:24;30.28;54.98
76384;SHT30;65204;48.606;7.598;2023-08-21T01:37:56;30.28;55.00
76384;SHT30;65204;48.606;7.598;2023-08-21T01:38:27;30.25;55.14
76384;SHT30;65204;48.606;7.598;2023-08-21T01:38:57;30.21;55.19
76384;SHT30;65204;48.606;7.598;2023-08-21T01:39:28;30.15;55.27
76384;SHT30;65204;48.606;7.598;2023-08-21T01:39:59;30.14;55.27
76384;SHT30;65204;48.606;7.598;2023-08-21T01:40:29;30.15;55.35
76384;SHT30;65204;48.606;7.598;2023-08-21T01:41:00;30.11;55.38
76384;SHT30;65204;48.606;7.598;2023-08-21T01:41:30;30.14;55.36
76384;SHT30;65204;48.606;7.598;2023-08-21T01:42:00;30.12;55.40
76384;SHT30;65204;48.606;7.598;2023-08-21T01:42:31;30.09;55.44
76384;SHT30;65204;48.606;7.598;2023-08-21T01:43:01;30.09;55.43
76384;SHT30;65204;48.606;7.598;2023-08-21T01:43:32;30.08;55.44
76384;SHT30;65204;48.606;7.598;2023-08-21T01:44:02;30.08;55.44
76384;SHT30;65204;48.606;7.598;2023-08-21T01:44:32;30.12;55.44
76384;SHT30;65204;48.606;7.598;2023-08-21T01:45:03;30.15;55.39
76384;SHT30;65204;48.606;7.598;2023-08-21T01:45:33;30.15;55.34
76384;SHT30;65204;48.606;7.598;2023-08-21T01:46:04;30.15;55.37
76384;SHT30;65204;48.606;7.598;2023-08-21T01:46:35;30.12;55.38
76384;SHT30;65204;48.606;7.598;2023-08-21T01:47:05;30.09;55.45
76384;SHT30;65204;48.606;7.598;2023-08-21T01:47:36;30.09;55.49
76384;SHT30;65204;48.606;7.598;2023-08-21T01:48:06;30.05;55.53
76384;SHT30;65204;48.606;7.598;2023-08-21T01:48:37;30.04;55.56
76384;SHT30;65204;48.606;7.598;2023-08-21T01:49:07;30.02;55.60
76384;SHT30;65204;48.606;7.598;2023-08-21T01:49:37;30.01;55.64
76384;SHT30;65204;48.606;7.598;2023-08-21T01:50:08;30.00;55.64
76384;SHT30;65204;48.606;7.598;2023-08-21T01:50:38;30.00;55.74
76384;SHT30;65204;48.606;7.598;2023-08-21T01:51:09;29.95;55.77
76384;SHT30;65204;48.606;7.598;2023-08-21T01:51:39;29.92;55.83
76384;SHT30;65204;48.606;7.598;2023-08-21T01:52:09;29.86;55.90
76384;SHT30;65204;48.606;7.598;2023-08-21T01:52:39;29.88;55.93
76384;SHT30;65204;48.606;7.598;2023-08-21T01:53:10;29.82;56.02
76384;SHT30;65204;48.606;7.598;2023-08-21T01:53:40;29.77;56.12
76384;SHT30;65204;48.606;7.598;2023-08-21T01:54:11;29.73;56.27
76384;SHT30;65204;48.606;7.598;2023-08-21T01:54:41;29.68;56.41
76384;SHT30;65204;48.606;7.598;2023-08-21T01:55:12;29.60;56.60
76384;SHT30;65204;48.606;7.598;2023-08-21T01:55:42;29.57;56.67
76384;SHT30;65204;48.606;7.598;2023-08-21T01:56:13;29.50;56.86
76384;SHT30;65204;48.606;7.598;2023-08-21T01:56:43;29.49;56.90
76384;SHT30;65204;48.606;7.598;2023-08-21T01:57:13;29.47;56.97
76384;SHT30;65204;48.606;7.598;2023-08-21T01:57:44;29.44;57.02
76384;SHT30;65204;48.606;7.598;2023-08-21T01:58:14;29.40;57.03
76384;SHT30;65204;48.606;7.598;2023-08-21T01:58:44;29.41;57.04
76384;SHT30;65204;48.606;7.598;2023-08-21T01:59:16;29.41;57.02
76384;SHT30;65204;48.606;7.598;2023-08-21T01:59:47;29.38;57.06
76384;SHT30;65204;48.606;7.598;2023-08-21T02:00:17;29.40;57.01
76384;SHT30;65204;48.606;7.598;2023-08-21T02:00:47;29.35;57.07
76384;SHT30;65204;48.606;7.598;2023-08-21T02:01:18;29.33;57.08
76384;SHT30;65204;48.606;7.598;2023-08-21T02:01:48;29.33;57.08
76384;SHT30;65204;48.606;7.598;2023-08-21T02:02:19;29.31;57.15
76384;SHT30;65204;48.606;7.598;2023-08-21T02:02:49;29.31;57.17
76384;SHT30;65204;48.606;7.598;2023-08-21T02:03:19;29.33;57.15
76384;SHT30;65204;48.606;7.598;2023-08-21T02:03:51;29.30;57.19
76384;SHT30;65204;48.606;7.598;2023-08-21T02:04:21;29.31;57.24
76384;SHT30;65204;48.606;7.598;2023-08-21T02:04:51;29.29;57.31
76384;SHT30;65204;48.606;7.598;2023-08-21T02:05:22;29.24;57.34
76384;SHT30;65204;48.606;7.598;2023-08-21T02:05:55;29.24;57.42
76384;SHT30;65204;48.606;7.598;2023-08-21T02:06:27;29.22;57.48
76384;SHT30;65204;48.606;7.598;2023-08-21T02:06:57;29.20;57.48
76384;SHT30;65204;48.606;7.598;2023-08-21T02:07:27;29.22;57.46
76384;SHT30;65204;48.606;7.598;2023-08-21T02:07:58;29.19;57.53
76384;SHT30;65204;48.606;7.598;2023-08-21T02:08:31;29.17;57.50
76384;SHT30;65204;48.606;7.598;2023-08-21T02:09:02;29.17;57.52
76384;SHT30;65204;48.606;7.598;2023-08-21T02:09:33;29.17;57.49
76384;SHT30;65204;48.606;7.598;2023-08-21T02:10:04;29.17;57.50
76384;SHT30;65204;48.606;7.598;2023-08-21T02:10:34;29.17;57.56
76384;SHT30;65204;48.606;7.598;2023-08-21T02:11:04;29.13;57.60
76384;SHT30;65204;48.606;7.598;2023-08-21T02:11:35;29.13;57.62
76384;SHT30;65204;48.606;7.598;2023-08-21T02:12:05;29.13;57.69
76384;SHT30;65204;48.606;7.598;2023-08-21T02:12:36;29.13;57.68
76384;SHT30;65204;48.606;7.598;2023-08-21T02:13:06;29.10;57.71
76384;SHT30;65204;48.606;7.598;2023-08-21T02:13:36;29.12;57.77
76384;SHT30;65204;48.606;7.598;2023-08-21T02:14:07;29.10;57.81
76384;SHT30;65204;48.606;7.598;2023-08-21T02:14:37;29.12;57.83
76384;SHT30;65204;48.606;7.598;2023-08-21T02:15:08;29.09;57.85
76384;SHT30;65204;48.606;7.598;2023-08-21T02:15:38;29.07;57.85
76384;SHT30;65204;48.606;7.598;2023-08-21T02:16:09;29.06;57.86
76384;SHT30;65204;48.606;7.598;2023-08-21T02:16:39;29.04;57.85
76384;SHT30;65204;48.606;7.598;2023-08-21T02:17:09;29.06;57.89
76384;SHT30;65204;48.606;7.598;2023-08-21T02:17:40;29.04;57.89
76384;SHT30;65204;48.606;7.598;2023-08-21T02:18:12;29.02;57.92
76384;SHT30;65204;48.606;7.598;2023-08-21T02:18:42;29.06;57.89
76384;SHT30;65204;48.606;7.598;2023-08-21T02:19:13;29.03;58.00
76384;SHT30;65204;48.606;7.598;2023-08-21T02:19:43;29.02;57.99
76384;SHT30;65204;48.606;7.598;2023-08-21T02:20:13;28.99;58.10
76384;SHT30;65204;48.606;7.598;2023-08-21T02:20:44;28.93;58.11
76384;SHT30;65204;48.606;7.598;2023-08-21T02:21:14;28.90;58.22
76384;SHT30;65204;48.606;7.598;2023-08-21T02:21:45;28.90;58.30
76384;SHT30;65204;48.606;7.598;2023-08-21T02:22:15;28.88;58.37
76384;SHT30;65204;48.606;7.598;2023-08-21T02:22:45;28.88;58.34
76384;SHT30;65204;48.606;7.598;2023-08-21T02:23:16;28.86;58.39
76384;SHT30;65204;48.606;7.598;2023-08-21T02:23:46;28.89;58.41
76384;SHT30;65204;48.606;7.598;2023-08-21T02:24:16;28.88;58.42
76384;SHT30;65204;48.606;7.598;2023-08-21T02:24:47;28.86;58.39
76384;SHT30;65204;48.606;7.598;2023-08-21T02:25:17;28.88;58.39
76384;SHT30;65204;48.606;7.598;2023-08-21T02:25:47;28.88;58.37
76384;SHT30;65204;48.606;7.598;2023-08-21T02:26:19;28.88;58.39
76384;SHT30;65204;48.606;7.598;2023-08-21T02:26:50;28.86;58.41
76384;SHT30;65204;48.606;7.598;2023-08-21T02:27:20;28.86;58.46
76384;SHT30;65204;48.606;7.598;2023-08-21T02:27:50;28.84;58.42
76384;SHT30;65204;48.606;7.598;2023-08-21T02:28:21;28.84;58.48
76384;SHT30;65204;48.606;7.598;2023-08-21T02:28:51;28.86;58.47
76384;SHT30;65204;48.606;7.598;2023-08-21T02:29:21;28.86;58.50
76384;SHT30;65204;48.606;7.598;2023-08-21T02:29:52;28.83;58.48
76384;SHT30;65204;48.606;7.598;2023-08-21T02:30:22;28.83;58.49
76384;SHT30;65204;48.606;7.598;2023-08-21T02:30:55;28.86;58.53
76384;SHT30;65204;48.606;7.598;2023-08-21T02:31:25;28.84;58.50
76384;SHT30;65204;48.606;7.598;2023-08-21T02:31:55;28.82;58.49
76384;SHT30;65204;48.606;7.598;2023-08-21T02:32:26;28.84;58.52
76384;SHT30;65204;48.606;7.598;2023-08-21T02:32:56;28.83;58.53
76384;SHT30;65204;48.606;7.598;2023-08-21T02:33:26;28.84;58.55
76384;SHT30;65204;48.606;7.598;2023-08-21T02:33:57;28.84;58.54
76384;SHT30;65204;48.606;7.598;2023-08-21T02:34:27;28.84;58.53
76384;SHT30;65204;48.606;7.598;2023-08-21T02:34:57;28.83;58.60
76384;SHT30;65204;48.606;7.598;2023-08-21T02:35:28;28.82;58.57
76384;SHT30;65204;48.606;7.598;2023-08-21T02:35:58;28.83;58.62
76384;SHT30;65204;48.606;7.598;2023-08-21T02:36:28;28.78;58.64
76384;SHT30;65204;48.606;7.598;2023-08-21T02:36:59;28.80;58.66
76384;SHT30;65204;48.606;7.598;2023-08-21T02:37:29;28.78;58.67
76384;SHT30;65204;48.606;7.598;2023-08-21T02:37:59;28.75;58.70
76384;SHT30;65204;48.606;7.598;2023-08-21T02:38:30;28.75;58.76
76384;SHT30;65204;48.606;7.598;2023-08-21T02:39:00;28.69;58.73
76384;SHT30;65204;48.606;7.598;2023-08-21T02:39:30;28.73;58.77
76384;SHT30;65204;48.606;7.598;2023-08-21T02:40:01;28.73;58.78
76384;SHT30;65204;48.606;7.598;2023-08-21T02:40:31;28.70;58.81
76384;SHT30;65204;48.606;7.598;2023-08-21T02:41:01;28.68;58.90
76384;SHT30;65204;48.606;7.598;2023-08-21T02:41:31;28.68;58.92
76384;SHT30;65204;48.606;7.598;2023-08-21T02:42:02;28.65;59.00
76384;SHT30;65204;48.606;7.598;2023-08-21T02:42:32;28.63;59.08
76384;SHT30;65204;48.606;7.598;2023-08-21T02:43:02;28.62;59.15
76384;SHT30;65204;48.606;7.598;2023-08-21T02:43:33;28.59;59.12
76384;SHT30;65204;48.606;7.598;2023-08-21T02:44:04;28.58;59.18
76384;SHT30;65204;48.606;7.598;2023-08-21T02:44:34;28.58;59.21
76384;SHT30;65204;48.606;7.598;2023-08-21T02:45:05;28.56;59.19
76384;SHT30;65204;48.606;7.598;2023-08-21T02:45:38;28.56;59.22
76384;SHT30;65204;48.606;7.598;2023-08-21T02:46:08;28.59;59.21
76384;SHT30;65204;48.606;7.598;2023-08-21T02:46:39;28.58;59.15
76384;SHT30;65204;48.606;7.598;2023-08-21T02:47:09;28.62;59.17
76384;SHT30;65204;48.606;7.598;2023-08-21T02:47:40;28.61;59.19
76384;SHT30;65204;48.606;7.598;2023-08-21T02:48:11;28.56;59.23
76384;SHT30;65204;48.606;7.598;2023-08-21T02:48:41;28.55;59.24
76384;SHT30;65204;48.606;7.598;2023-08-21T02:49:12;28.56;59.23
76384;SHT30;65204;48.606;7.598;2023-08-21T02:49:42;28.53;59.25
76384;SHT30;65204;48.606;7.598;2023-08-21T02:50:12;28.53;59.26
76384;SHT30;65204;48.606;7.598;2023-08-21T02:50:43;28.53;59.32
76384;SHT30;65204;48.606;7.598;2023-08-21T02:51:13;28.49;59.40
76384;SHT30;65204;48.606;7.598;2023-08-21T02:51:43;28.51;59.39
76384;SHT30;65204;48.606;7.598;2023-08-21T02:52:14;28.49;59.40
76384;SHT30;65204;48.606;7.598;2023-08-21T02:52:44;28.51;59.39
76384;SHT30;65204;48.606;7.598;2023-08-21T02:53:14;28.52;59.38
76384;SHT30;65204;48.606;7.598;2023-08-21T02:53:45;28.49;59.36
76384;SHT30;65204;48.606;7.598;2023-08-21T02:54:15;28.52;59.34
76384;SHT30;65204;48.606;7.598;2023-08-21T02:54:45;28.52;59.35
76384;SHT30;65204;48.606;7.598;2023-08-21T02:55:16;28.53;59.35
76384;SHT30;65204;48.606;7.598;2023-08-21T02:55:46;28.52;59.35
76384;SHT30;65204;48.606;7.598;2023-08-21T02:56:16;28.51;59.34
76384;SHT30;65204;48.606;7.598;2023-08-21T02:56:47;28.53;59.30
76384;SHT30;65204;48.606;7.598;2023-08-21T02:57:18;28.51;59.30
76384;SHT30;65204;48.606;7.598;2023-08-21T02:57:48;28.48;59.39
76384;SHT30;65204;48.606;7.598;2023-08-21T02:58:18;28.47;59.43
76384;SHT30;65204;48.606;7.598;2023-08-21T02:58:49;28.45;59.50
76384;SHT30;65204;48.606;7.598;2023-08-21T02:59:19;28.41;59.57
76384;SHT30;65204;48.606;7.598;2023-08-21T02:59:50;28.38;59.71
76384;SHT30;65204;48.606;7.598;2023-08-21T03:00:20;28.35;59.68
76384;SHT30;65204;48.606;7.598;2023-08-21T03:00:50;28.38;59.72
76384;SHT30;65204;48.606;7.598;2023-08-21T03:01:21;28.35;59.72
76384;SHT30;65204;48.606;7.598;2023-08-21T03:01:51;28.38;59.71
76384;SHT30;65204;48.606;7.598;2023-08-21T03:02:22;28.38;59.67
76384;SHT30;65204;48.606;7.598;2023-08-21T03:02:52;28.39;59.67
76384;SHT30;65204;48.606;7.598;2023-08-21T03:03:22;28.38;59.67
76384;SHT30;65204;48.606;7.598;2023-08-21T03:03:52;28.38;59.64
76384;SHT30;65204;48.606;7.598;2023-08-21T03:04:23;28.39;59.57
76384;SHT30;65204;48.606;7.598;2023-08-21T03:04:53;28.41;59.56
76384;SHT30;65204;48.606;7.598;2023-08-21T03:05:24;28.39;59.59
76384;SHT30;65204;48.606;7.598;2023-08-21T03:05:54;28.39;59.61
76384;SHT30;65204;48.606;7.598;2023-08-21T03:06:24;28.41;59.61
76384;SHT30;65204;48.606;7.598;2023-08-21T03:06:55;28.38;59.62
76384;SHT30;65204;48.606;7.598;2023-08-21T03:07:25;28.41;59.62
76384;SHT30;65204;48.606;7.598;2023-08-21T03:07:55;28.37;59.56
76384;SHT30;65204;48.606;7.598;2023-08-21T03:08:25;28.41;59.60
76384;SHT30;65204;48.606;7.598;2023-08-21T03:08:56;28.39;59.64
76384;SHT30;65204;48.606;7.598;2023-08-21T03:09:26;28.35;59.73
76384;SHT30;65204;48.606;7.598;2023-08-21T03:09:56;28.29;59.79
76384;SHT30;65204;48.606;7.598;2023-08-21T03:10:27;28.27;59.83
76384;SHT30;65204;48.606;7.598;2023-08-21T03:10:58;28.25;59.85
76384;SHT30;65204;48.606;7.598;2023-08-21T03:11:28;28.25;59.89
76384;SHT30;65204;48.606;7.598;2023-08-21T03:11:59;28.27;59.82
76384;SHT30;65204;48.606;7.598;2023-08-21T03:12:29;28.28;59.86
76384;SHT30;65204;48.606;7.598;2023-08-21T03:13:00;28.27;59.84
76384;SHT30;65204;48.606;7.598;2023-08-21T03:13:30;28.25;59.86
76384;SHT30;65204;48.606;7.598;2023-08-21T03:14:01;28.28;59.86
76384;SHT30;65204;48.606;7.598;2023-08-21T03:14:31;28.27;59.88
76384;SHT30;65204;48.606;7.598;2023-08-21T03:15:02;28.24;59.87
76384;SHT30;65204;48.606;7.598;2023-08-21T03:15:32;28.21;59.99
76384;SHT30;65204;48.606;7.598;2023-08-21T03:16:02;28.24;60.03
76384;SHT30;65204;48.606;7.598;2023-08-21T03:16:33;28.21;59.97
76384;SHT30;65204;48.606;7.598;2023-08-21T03:17:03;28.21;60.05
76384;SHT30;65204;48.606;7.598;2023-08-21T03:17:33;28.19;60.11
76384;SHT30;65204;48.606;7.598;2023-08-21T03:18:04;28.17;60.10
76384;SHT30;65204;48.606;7.598;2023-08-21T03:18:53;28.14;60.11
76384;SHT30;65204;48.606;7.598;2023-08-21T03:19:24;28.19;60.11
76384;SHT30;65204;48.606;7.598;2023-08-21T03:19:54;28.21;60.08